sensor_id;sensor_type;location;lat;lon;timestamp;temperature;humidity
25328;DHT22;13279;51.300;12.394;2023-01-20T00:01:24;1.70;99.90
25328;DHT22;13279;51.300;12.394;2023-01-20T00:03:53;1.60;99.90
25328;DHT22;13279;51.300;12.394;2023-01-20T00:06:21;1.70;99.90
25328;DHT22;13279;51.300;12.394;2023-01-20T00:08:49;1.60;99.90
25328;DHT22;13279;51.300;12.394;2023-01-20T00:11:19;1.60;99.90
25328;DHT22;13279;51.300;12.394;2023-01-20T00:13:47;1.60;99.90
25328;DHT22;13279;51.300;12.394;2023-01-20T00:16:14;1.60;99.90
25328;DHT22;13279;51.300;12.394;2023-01-20T00:18:42;1.60;99.90
25328;DHT22;13279;51.300;12.394;2023-01-20T00:21:12;1.60;99.90
25328;DHT22;13279;51.300;12.394;2023-01-20T00:23:42;1.60;99.90
25328;DHT22;13279;51.300;12.394;2023-01-20T00:26:11;1.60;99.90
25328;DHT22;13279;51.300;12.394;2023-01-20T00:28:41;1.60;99.90
25328;DHT22;13279;51.300;12.394;2023-01-20T00:31:11;1.60;99.90
25328;DHT22;13279;51.300;12.394;2023-01-20T00:33:39;1.60;99.90
25328;DHT22;13279;51.300;12.394;2023-01-20T00:36:08;1.60;99.90
25328;DHT22;13279;51.300;12.394;2023-01-20T00:38:36;1.50;99.90
25328;DHT22;13279;51.300;12.394;2023-01-20T00:41:04;1.50;99.90
25328;DHT22;13279;51.300;12.394;2023-01-20T00:43:32;1.50;99.90
25328;DHT22;13279;51.300;12.394;2023-01-20T00:46:01;1.50;99.90
25328;DHT22;13279;51.300;12.394;2023-01-20T00:48:29;1.50;99.90
25328;DHT22;13279;51.300;12.394;2023-01-20T00:50:57;1.50;99.90
25328;DHT22;13279;51.300;12.394;2023-01-20T00:53:24;1.50;99.90
25328;DHT22;13279;51.300;12.394;2023-01-20T00:55:52;1.40;99.90
25328;DHT22;13279;51.300;12.394;2023-01-20T00:58:20;1.50;99.90
25328;DHT22;13279;51.300;12.394;2023-01-20T01:00:48;1.40;99.90
25328;DHT22;13279;51.300;12.394;2023-01-20T01:03:17;1.40;99.90
25328;DHT22;13279;51.300;12.394;2023-01-20T01:05:45;1.40;99.90
25328;DHT22;13279;51.300;12.394;2023-01-20T01:08:13;1.40;99.90
25328;DHT22;13279;51.300;12.394;2023-01-20T01:10:40;1.40;99.90
25328;DHT22;13279;51.300;12.394;2023-01-20T01:13:08;1.40;99.90
25328;DHT22;13279;51.300;12.394;2023-01-20T01:15:36;1.40;99.90
25328;DHT22;13279;51.300;12.394;2023-01-20T01:18:03;1.40;99.90
25328;DHT22;13279;51.300;12.394;2023-01-20T01:20:32;1.40;99.90
25328;DHT22;13279;51.300;12.394;2023-01-20T01:23:00;1.40;99.90
25328;DHT22;13279;51.300;12.394;2023-01-20T01:25:27;1.40;99.90
25328;DHT22;13279;51.300;12.394;2023-01-20T01:27:54;1.40;99.90
25328;DHT22;13279;51.300;12.394;2023-01-20T01:30:22;1.40;99.90
25328;DHT22;13279;51.300;12.394;2023-01-20T01:32:49;1.40;99.90
25328;DHT22;13279;51.300;12.394;2023-01-20T01:35:17;1.40;99.90
25328;DHT22;13279;51.300;12.394;2023-01-20T01:37:46;1.30;99.90
25328;DHT22;13279;51.300;12.394;2023-01-20T01:40:13;1.30;99.90
25328;DHT22;13279;51.300;12.394;2023-01-20T01:42:41;1.30;99.90
25328;DHT22;13279;51.300;12.394;2023-01-20T01:45:21;1.30;99.90
25328;DHT22;13279;51.300;12.394;2023-01-20T01:47:53;1.30;99.90
25328;DHT22;13279;51.300;12.394;2023-01-20T01:50:24;1.30;99.90
25328;DHT22;13279;51.300;12.394;2023-01-20T01:52:55;1.30;99.90
25328;DHT22;13279;51.300;12.394;2023-01-20T01:55:26;1.30;99.90
25328;DHT22;13279;51.300;12.394;2023-01-20T01:57:55;1.30;99.90
25328;DHT22;13279;51.300;12.394;2023-01-20T02:00:25;1.30;99.90
25328;DHT22;13279;51.300;12.394;2023-01-20T02:02:52;1.30;99.90
25328;DHT22;13279;51.300;12.394;2023-01-20T02:05:21;1.30;99.90
25328;DHT22;13279;51.300;12.394;2023-01-20T02:07:51;1.30;99.90
25328;DHT22;13279;51.300;12.394;2023-01-20T02:10:20;1.30;99.90
25328;DHT22;13279;51.300;12.394;2023-01-20T02:12:48;1.30;99.90
25328;DHT22;13279;51.300;12.394;2023-01-20T02:15:21;1.30;99.90
25328;DHT22;13279;51.300;12.394;2023-01-20T02:18:03;1.30;99.90
25328;DHT22;13279;51.300;12.394;2023-01-20T02:21:03;1.30;99.90
25328;DHT22;13279;51.300;12.394;2023-01-20T02:23:59;1.30;99.90
25328;DHT22;13279;51.300;12.394;2023-01-20T02:29:54;1.40;99.90
25328;DHT22;13279;51.300;12.394;2023-01-20T02:32:37;1.40;99.90
25328;DHT22;13279;51.300;12.394;2023-01-20T02:35:09;1.40;99.90
25328;DHT22;13279;51.300;12.394;2023-01-20T02:37:45;1.40;99.90
25328;DHT22;13279;51.300;12.394;2023-01-20T02:40:25;1.30;99.90
25328;DHT22;13279;51.300;12.394;2023-01-20T02:43:00;1.40;99.90
25328;DHT22;13279;51.300;12.394;2023-01-20T02:45:34;1.30;99.90
25328;DHT22;13279;51.300;12.394;2023-01-20T02:48:08;1.30;99.90
25328;DHT22;13279;51.300;12.394;2023-01-20T02:50:43;1.30;99.90
25328;DHT22;13279;51.300;12.394;2023-01-20T02:53:13;1.30;99.90
25328;DHT22;13279;51.300;12.394;2023-01-20T02:55:45;1.30;99.90
25328;DHT22;13279;51.300;12.394;2023-01-20T02:58:15;1.30;99.90
25328;DHT22;13279;51.300;12.394;2023-01-20T03:00:48;1.30;99.90
25328;DHT22;13279;51.300;12.394;2023-01-20T03:03:21;1.30;99.90
25328;DHT22;13279;51.300;12.394;2023-01-20T03:05:52;1.30;99.90
25328;DHT22;13279;51.300;12.394;2023-01-20T03:08:23;1.30;99.90
25328;DHT22;13279;51.300;12.394;2023-01-20T03:10:54;1.30;99.90
25328;DHT22;13279;51.300;12.394;2023-01-20T03:13:30;1.30;99.90
25328;DHT22;13279;51.300;12.394;2023-01-20T03:16:03;1.30;99.90
25328;DHT22;13279;51.300;12.394;2023-01-20T03:18:34;1.40;99.90
25328;DHT22;13279;51.300;12.394;2023-01-20T03:21:04;1.40;99.90
25328;DHT22;13279;51.300;12.394;2023-01-20T03:23:35;1.40;99.90
25328;DHT22;13279;51.300;12.394;2023-01-20T03:26:08;1.40;99.90
25328;DHT22;13279;51.300;12.394;2023-01-20T03:28:36;1.40;99.90
25328;DHT22;13279;51.300;12.394;2023-01-20T03:31:34;1.40;99.90
25328;DHT22;13279;51.300;12.394;2023-01-20T03:34:07;1.40;99.90
25328;DHT22;13279;51.300;12.394;2023-01-20T03:36:36;1.40;99.90
25328;DHT22;13279;51.300;12.394;2023-01-20T03:39:04;1.40;99.90
25328;DHT22;13279;51.300;12.394;2023-01-20T03:41:38;1.40;99.90
25328;DHT22;13279;51.300;12.394;2023-01-20T03:44:11;1.40;99.90
25328;DHT22;13279;51.300;12.394;2023-01-20T03:46:45;1.40;99.90
25328;DHT22;13279;51.300;12.394;2023-01-20T03:49:20;1.40;99.90
25328;DHT22;13279;51.300;12.394;2023-01-20T03:51:58;1.40;99.90
25328;DHT22;13279;51.300;12.394;2023-01-20T03:54:33;1.40;99.90
25328;DHT22;13279;51.300;12.394;2023-01-20T03:57:08;1.40;99.90
25328;DHT22;13279;51.300;12.394;2023-01-20T03:59:40;1.30;99.90
25328;DHT22;13279;51.300;12.394;2023-01-20T04:02:09;1.40;99.90
25328;DHT22;13279;51.300;12.394;2023-01-20T04:04:41;1.40;99.90
25328;DHT22;13279;51.300;12.394;2023-01-20T04:07:13;1.40;99.90
25328;DHT22;13279;51.300;12.394;2023-01-20T04:09:45;1.40;99.90
25328;DHT22;13279;51.300;12.394;2023-01-20T04:12:14;1.40;99.90
25328;DHT22;13279;51.300;12.394;2023-01-20T04:14:41;1.40;99.90
25328;DHT22;13279;51.300;12.394;2023-01-20T04:17:08;1.40;99.90
25328;DHT22;13279;51.300;12.394;2023-01-20T04:19:36;1.40;99.90
25328;DHT22;13279;51.300;12.394;2023-01-20T04:22:08;1.40;99.90
25328;DHT22;13279;51.300;12.394;2023-01-20T04:24:42;1.40;99.90
25328;DHT22;13279;51.300;12.394;2023-01-20T04:27:10;1.40;99.90
25328;DHT22;13279;51.300;12.394;2023-01-20T04:29:37;1.40;99.90
25328;DHT22;13279;51.300;12.394;2023-01-20T04:32:08;1.40;99.90
25328;DHT22;13279;51.300;12.394;2023-01-20T04:34:35;1.40;99.90
25328;DHT22;13279;51.300;12.394;2023-01-20T04:37:04;1.40;99.90
25328;DHT22;13279;51.300;12.394;2023-01-20T04:39:32;1.40;99.90
25328;DHT22;13279;51.300;12.394;2023-01-20T04:41:59;1.40;99.90
25328;DHT22;13279;51.300;12.394;2023-01-20T04:44:26;1.40;99.90
25328;DHT22;13279;51.300;12.394;2023-01-20T04:46:56;1.30;99.90
25328;DHT22;13279;51.300;12.394;2023-01-20T04:49:23;1.30;99.90
25328;DHT22;13279;51.300;12.394;2023-01-20T04:51:50;1.30;99.90
25328;DHT22;13279;51.300;12.394;2023-01-20T04:54:19;1.30;99.90
25328;DHT22;13279;51.300;12.394;2023-01-20T04:56:47;1.30;99.90
25328;DHT22;13279;51.300;12.394;2023-01-20T04:59:15;1.30;99.90
25328;DHT22;13279;51.300;12.394;2023-01-20T05:01:42;1.30;99.90
25328;DHT22;13279;51.300;12.394;2023-01-20T05:04:09;1.30;99.90
25328;DHT22;13279;51.300;12.394;2023-01-20T05:06:37;1.20;99.90
25328;DHT22;13279;51.300;12.394;2023-01-20T05:09:08;1.30;99.90
25328;DHT22;13279;51.300;12.394;2023-01-20T05:11:38;1.20;99.90
25328;DHT22;13279;51.300;12.394;2023-01-20T05:14:05;1.20;99.90
25328;DHT22;13279;51.300;12.394;2023-01-20T05:16:33;1.20;99.90
25328;DHT22;13279;51.300;12.394;2023-01-20T05:19:01;1.20;99.90
25328;DHT22;13279;51.300;12.394;2023-01-20T05:21:28;1.10;99.90
25328;DHT22;13279;51.300;12.394;2023-01-20T05:23:56;1.10;99.90
25328;DHT22;13279;51.300;12.394;2023-01-20T05:26:24;1.20;99.90
25328;DHT22;13279;51.300;12.394;2023-01-20T05:28:53;1.10;99.90
25328;DHT22;13279;51.300;12.394;2023-01-20T05:31:20;1.10;99.90
25328;DHT22;13279;51.300;12.394;2023-01-20T05:33:48;1.20;99.90
25328;DHT22;13279;51.300;12.394;2023-01-20T05:36:15;1.20;99.90
25328;DHT22;13279;51.300;12.394;2023-01-20T05:38:42;1.20;99.90
25328;DHT22;13279;51.300;12.394;2023-01-20T05:41:10;1.20;99.90
25328;DHT22;13279;51.300;12.394;2023-01-20T05:43:38;1.20;99.90
25328;DHT22;13279;51.300;12.394;2023-01-20T05:46:07;1.20;99.90
25328;DHT22;13279;51.300;12.394;2023-01-20T05:48:34;1.20;99.90
25328;DHT22;13279;51.300;12.394;2023-01-20T05:51:02;1.20;99.90
25328;DHT22;13279;51.300;12.394;2023-01-20T05:53:29;1.20;99.90
25328;DHT22;13279;51.300;12.394;2023-01-20T05:56:01;1.20;99.90
25328;DHT22;13279;51.300;12.394;2023-01-20T05:58:29;1.20;99.90
25328;DHT22;13279;51.300;12.394;2023-01-20T06:01:04;1.20;99.90
25328;DHT22;13279;51.300;12.394;2023-01-20T06:03:33;1.20;99.90
25328;DHT22;13279;51.300;12.394;2023-01-20T06:06:01;1.30;99.90
25328;DHT22;13279;51.300;12.394;2023-01-20T06:08:30;1.30;99.90
25328;DHT22;13279;51.300;12.394;2023-01-20T06:11:01;1.20;99.90
25328;DHT22;13279;51.300;12.394;2023-01-20T06:13:28;1.30;99.90
25328;DHT22;13279;51.300;12.394;2023-01-20T06:16:09;1.20;99.90
25328;DHT22;13279;51.300;12.394;2023-01-20T06:18:48;1.20;99.90
25328;DHT22;13279;51.300;12.394;2023-01-20T06:21:36;1.20;99.90
25328;DHT22;13279;51.300;12.394;2023-01-20T06:24:05;1.10;99.90
25328;DHT22;13279;51.300;12.394;2023-01-20T06:26:43;1.10;99.90
25328;DHT22;13279;51.300;12.394;2023-01-20T06:29:30;1.10;99.90
25328;DHT22;13279;51.300;12.394;2023-01-20T06:32:07;1.20;99.90
25328;DHT22;13279;51.300;12.394;2023-01-20T06:34:49;1.20;99.90
25328;DHT22;13279;51.300;12.394;2023-01-20T06:37:22;1.10;99.90
25328;DHT22;13279;51.300;12.394;2023-01-20T06:40:12;1.20;99.90
25328;DHT22;13279;51.300;12.394;2023-01-20T06:42:58;1.20;99.90
25328;DHT22;13279;51.300;12.394;2023-01-20T06:45:34;1.20;99.90
25328;DHT22;13279;51.300;12.394;2023-01-20T06:48:20;1.20;99.90
25328;DHT22;13279;51.300;12.394;2023-01-20T06:50:51;1.30;99.90
25328;DHT22;13279;51.300;12.394;2023-01-20T06:53:26;1.30;99.90
25328;DHT22;13279;51.300;12.394;2023-01-20T06:56:09;1.30;99.90
25328;DHT22;13279;51.300;12.394;2023-01-20T06:58:46;1.30;99.90
25328;DHT22;13279;51.300;12.394;2023-01-20T07:01:26;1.30;99.90
25328;DHT22;13279;51.300;12.394;2023-01-20T07:06:39;1.30;99.90
25328;DHT22;13279;51.300;12.394;2023-01-20T07:09:18;1.30;99.90
25328;DHT22;13279;51.300;12.394;2023-01-20T07:12:13;1.30;99.90
25328;DHT22;13279;51.300;12.394;2023-01-20T07:14:50;1.30;99.90
25328;DHT22;13279;51.300;12.394;2023-01-20T07:17:23;1.30;99.90
25328;DHT22;13279;51.300;12.394;2023-01-20T07:19:54;1.30;99.90
25328;DHT22;13279;51.300;12.394;2023-01-20T07:22:33;1.30;99.90
25328;DHT22;13279;51.300;12.394;2023-01-20T07:25:05;1.30;99.90
25328;DHT22;13279;51.300;12.394;2023-01-20T07:27:38;1.30;99.90
25328;DHT22;13279;51.300;12.394;2023-01-20T07:30:19;1.30;99.90
25328;DHT22;13279;51.300;12.394;2023-01-20T07:33:05;1.30;99.90
25328;DHT22;13279;51.300;12.394;2023-01-20T07:35:52;1.40;99.90
25328;DHT22;13279;51.300;12.394;2023-01-20T07:38:31;1.20;99.90
25328;DHT22;13279;51.300;12.394;2023-01-20T07:41:08;1.20;99.90
25328;DHT22;13279;51.300;12.394;2023-01-20T07:43:45;1.20;99.90
25328;DHT22;13279;51.300;12.394;2023-01-20T07:46:18;1.10;99.90
25328;DHT22;13279;51.300;12.394;2023-01-20T07:48:54;1.20;99.90
25328;DHT22;13279;51.300;12.394;2023-01-20T07:51:38;1.10;99.90
25328;DHT22;13279;51.300;12.394;2023-01-20T07:54:12;1.10;99.90
25328;DHT22;13279;51.300;12.394;2023-01-20T07:56:48;1.10;99.90
25328;DHT22;13279;51.300;12.394;2023-01-20T07:59:18;1.10;99.90
25328;DHT22;13279;51.300;12.394;2023-01-20T08:02:01;1.10;99.90
25328;DHT22;13279;51.300;12.394;2023-01-20T08:04:32;1.20;99.90
25328;DHT22;13279;51.300;12.394;2023-01-20T08:07:06;1.20;99.90
25328;DHT22;13279;51.300;12.394;2023-01-20T08:10:13;1.20;99.90
25328;DHT22;13279;51.300;12.394;2023-01-20T08:13:13;1.20;99.90
25328;DHT22;13279;51.300;12.394;2023-01-20T08:15:46;1.20;99.90
25328;DHT22;13279;51.300;12.394;2023-01-20T08:18:17;1.20;99.90
25328;DHT22;13279;51.300;12.394;2023-01-20T08:20:47;1.20;99.90
25328;DHT22;13279;51.300;12.394;2023-01-20T08:23:16;1.20;99.90
25328;DHT22;13279;51.300;12.394;2023-01-20T08:25:46;1.10;99.90
25328;DHT22;13279;51.300;12.394;2023-01-20T08:28:13;1.10;99.90
25328;DHT22;13279;51.300;12.394;2023-01-20T08:30:41;1.10;99.90
25328;DHT22;13279;51.300;12.394;2023-01-20T08:33:08;1.20;99.90
25328;DHT22;13279;51.300;12.394;2023-01-20T08:35:35;1.20;99.90
25328;DHT22;13279;51.300;12.394;2023-01-20T08:38:03;1.10;99.90
25328;DHT22;13279;51.300;12.394;2023-01-20T08:40:31;1.00;99.90
25328;DHT22;13279;51.300;12.394;2023-01-20T08:43:01;1.00;99.90
25328;DHT22;13279;51.300;12.394;2023-01-20T08:45:29;1.00;99.90
25328;DHT22;13279;51.300;12.394;2023-01-20T08:47:57;1.00;99.90
25328;DHT22;13279;51.300;12.394;2023-01-20T08:50:27;1.20;99.90
25328;DHT22;13279;51.300;12.394;2023-01-20T08:52:57;1.20;99.90
25328;DHT22;13279;51.300;12.394;2023-01-20T08:55:33;1.20;99.90
25328;DHT22;13279;51.300;12.394;2023-01-20T08:58:04;1.30;99.90
25328;DHT22;13279;51.300;12.394;2023-01-20T09:00:31;1.30;99.90
25328;DHT22;13279;51.300;12.394;2023-01-20T09:02:59;1.40;99.90
25328;DHT22;13279;51.300;12.394;2023-01-20T09:05:26;1.50;99.90
25328;DHT22;13279;51.300;12.394;2023-01-20T09:07:54;1.60;99.90
25328;DHT22;13279;51.300;12.394;2023-01-20T09:10:21;1.70;99.90
25328;DHT22;13279;51.300;12.394;2023-01-20T09:12:49;1.80;99.90
25328;DHT22;13279;51.300;12.394;2023-01-20T09:15:19;1.80;99.90
25328;DHT22;13279;51.300;12.394;2023-01-20T09:17:48;1.90;99.90
25328;DHT22;13279;51.300;12.394;2023-01-20T09:20:16;2.00;99.90
25328;DHT22;13279;51.300;12.394;2023-01-20T09:22:44;2.00;99.90
25328;DHT22;13279;51.300;12.394;2023-01-20T09:25:13;2.10;99.90
25328;DHT22;13279;51.300;12.394;2023-01-20T09:27:41;2.10;99.90
25328;DHT22;13279;51.300;12.394;2023-01-20T09:30:09;2.30;99.90
25328;DHT22;13279;51.300;12.394;2023-01-20T09:32:38;2.40;99.90
25328;DHT22;13279;51.300;12.394;2023-01-20T09:35:07;2.50;99.90
25328;DHT22;13279;51.300;12.394;2023-01-20T09:37:35;2.50;99.90
25328;DHT22;13279;51.300;12.394;2023-01-20T09:40:25;2.50;99.90
25328;DHT22;13279;51.300;12.394;2023-01-20T09:43:24;2.40;99.90
25328;DHT22;13279;51.300;12.394;2023-01-20T09:46:16;2.60;99.90
25328;DHT22;13279;51.300;12.394;2023-01-20T09:48:54;2.60;99.90
25328;DHT22;13279;51.300;12.394;2023-01-20T09:51:48;2.70;99.90
25328;DHT22;13279;51.300;12.394;2023-01-20T09:54:42;2.70;99.90
25328;DHT22;13279;51.300;12.394;2023-01-20T09:57:12;2.80;99.90
25328;DHT22;13279;51.300;12.394;2023-01-20T09:59:45;2.70;99.90
25328;DHT22;13279;51.300;12.394;2023-01-20T10:02:18;2.70;99.90
25328;DHT22;13279;51.300;12.394;2023-01-20T10:04:55;2.70;99.90
25328;DHT22;13279;51.300;12.394;2023-01-20T10:07:32;2.70;99.90
25328;DHT22;13279;51.300;12.394;2023-01-20T10:10:10;2.70;99.90
25328;DHT22;13279;51.300;12.394;2023-01-20T10:12:45;2.80;99.90
25328;DHT22;13279;51.300;12.394;2023-01-20T10:15:34;2.80;99.90
25328;DHT22;13279;51.300;12.394;2023-01-20T10:18:45;2.80;99.90
25328;DHT22;13279;51.300;12.394;2023-01-20T10:24:45;3.00;99.90
25328;DHT22;13279;51.300;12.394;2023-01-20T10:27:13;3.20;99.90
25328;DHT22;13279;51.300;12.394;2023-01-20T10:29:44;3.10;99.90
25328;DHT22;13279;51.300;12.394;2023-01-20T10:32:22;3.00;99.90
25328;DHT22;13279;51.300;12.394;2023-01-20T10:34:53;2.90;99.90
25328;DHT22;13279;51.300;12.394;2023-01-20T10:37:26;2.90;99.90
25328;DHT22;13279;51.300;12.394;2023-01-20T10:40:02;2.90;99.90
25328;DHT22;13279;51.300;12.394;2023-01-20T10:42:32;3.00;99.90
25328;DHT22;13279;51.300;12.394;2023-01-20T10:45:07;2.90;99.90
25328;DHT22;13279;51.300;12.394;2023-01-20T10:47:45;3.10;99.90
25328;DHT22;13279;51.300;12.394;2023-01-20T10:50:34;3.00;99.90
25328;DHT22;13279;51.300;12.394;2023-01-20T10:53:33;3.00;99.90
25328;DHT22;13279;51.300;12.394;2023-01-20T10:56:14;3.20;99.90
25328;DHT22;13279;51.300;12.394;2023-01-20T10:58:44;3.20;99.90
25328;DHT22;13279;51.300;12.394;2023-01-20T11:01:15;3.20;99.90
25328;DHT22;13279;51.300;12.394;2023-01-20T11:03:45;3.30;99.90
25328;DHT22;13279;51.300;12.394;2023-01-20T11:06:18;3.30;99.90
25328;DHT22;13279;51.300;12.394;2023-01-20T11:08:47;3.40;99.90
25328;DHT22;13279;51.300;12.394;2023-01-20T11:11:18;3.20;99.90
25328;DHT22;13279;51.300;12.394;2023-01-20T11:13:47;3.00;99.90
25328;DHT22;13279;51.300;12.394;2023-01-20T11:16:19;2.80;99.90
25328;DHT22;13279;51.300;12.394;2023-01-20T11:18:57;2.80;99.90
25328;DHT22;13279;51.300;12.394;2023-01-20T11:21:34;2.90;99.90
25328;DHT22;13279;51.300;12.394;2023-01-20T11:24:03;2.90;99.90
25328;DHT22;13279;51.300;12.394;2023-01-20T11:27:02;2.90;99.90
25328;DHT22;13279;51.300;12.394;2023-01-20T11:29:38;2.80;99.90
25328;DHT22;13279;51.300;12.394;2023-01-20T11:32:31;2.80;99.90
25328;DHT22;13279;51.300;12.394;2023-01-20T11:35:20;2.80;1.00
25328;DHT22;13279;51.300;12.394;2023-01-20T11:37:48;2.60;1.00
25328;DHT22;13279;51.300;12.394;2023-01-20T11:40:21;2.70;1.00
25328;DHT22;13279;51.300;12.394;2023-01-20T11:42:51;2.80;1.00
25328;DHT22;13279;51.300;12.394;2023-01-20T11:45:34;2.80;1.00
25328;DHT22;13279;51.300;12.394;2023-01-20T11:48:07;2.80;1.00
25328;DHT22;13279;51.300;12.394;2023-01-20T11:50:47;2.80;1.00
25328;DHT22;13279;51.300;12.394;2023-01-20T11:53:21;2.80;1.00
25328;DHT22;13279;51.300;12.394;2023-01-20T11:55:52;2.80;1.00
25328;DHT22;13279;51.300;12.394;2023-01-20T11:58:25;2.80;1.00
25328;DHT22;13279;51.300;12.394;2023-01-20T12:01:03;2.80;1.00
25328;DHT22;13279;51.300;12.394;2023-01-20T12:04:06;2.60;1.00
25328;DHT22;13279;51.300;12.394;2023-01-20T12:06:45;2.60;1.00
25328;DHT22;13279;51.300;12.394;2023-01-20T12:09:20;2.60;1.00
25328;DHT22;13279;51.300;12.394;2023-01-20T12:11:54;2.70;1.00
25328;DHT22;13279;51.300;12.394;2023-01-20T12:14:28;2.70;1.00
25328;DHT22;13279;51.300;12.394;2023-01-20T12:17:05;2.80;1.00
25328;DHT22;13279;51.300;12.394;2023-01-20T12:19:49;2.90;1.00
25328;DHT22;13279;51.300;12.394;2023-01-20T12:22:23;3.00;1.00
25328;DHT22;13279;51.300;12.394;2023-01-20T12:24:57;3.10;1.00
25328;DHT22;13279;51.300;12.394;2023-01-20T12:27:45;3.20;1.00
25328;DHT22;13279;51.300;12.394;2023-01-20T12:30:33;3.20;1.00
25328;DHT22;13279;51.300;12.394;2023-01-20T12:33:03;3.30;1.00
25328;DHT22;13279;51.300;12.394;2023-01-20T12:35:37;3.30;1.00
25328;DHT22;13279;51.300;12.394;2023-01-20T12:38:10;3.50;1.00
25328;DHT22;13279;51.300;12.394;2023-01-20T12:40:45;3.60;1.00
25328;DHT22;13279;51.300;12.394;2023-01-20T12:43:26;3.60;1.00
25328;DHT22;13279;51.300;12.394;2023-01-20T12:49:17;3.70;1.00
25328;DHT22;13279;51.300;12.394;2023-01-20T12:51:58;3.70;1.00
25328;DHT22;13279;51.300;12.394;2023-01-20T12:54:46;3.70;1.00
25328;DHT22;13279;51.300;12.394;2023-01-20T12:57:27;3.80;99.90
25328;DHT22;13279;51.300;12.394;2023-01-20T13:00:09;3.80;99.90
25328;DHT22;13279;51.300;12.394;2023-01-20T13:06:42;3.70;99.90
25328;DHT22;13279;51.300;12.394;2023-01-20T13:09:40;3.70;99.90
25328;DHT22;13279;51.300;12.394;2023-01-20T13:12:33;3.60;99.90
25328;DHT22;13279;51.300;12.394;2023-01-20T13:15:19;3.70;99.90
25328;DHT22;13279;51.300;12.394;2023-01-20T13:18:04;3.60;99.90
25328;DHT22;13279;51.300;12.394;2023-01-20T13:20:33;3.60;99.90
25328;DHT22;13279;51.300;12.394;2023-01-20T13:23:04;3.60;99.90
25328;DHT22;13279;51.300;12.394;2023-01-20T13:25:33;3.60;99.90
25328;DHT22;13279;51.300;12.394;2023-01-20T13:28:01;3.70;99.90
25328;DHT22;13279;51.300;12.394;2023-01-20T13:34:38;3.60;99.90
25328;DHT22;13279;51.300;12.394;2023-01-20T13:37:30;3.70;99.90
25328;DHT22;13279;51.300;12.394;2023-01-20T13:40:00;3.80;99.90
25328;DHT22;13279;51.300;12.394;2023-01-20T13:42:46;3.80;99.90
25328;DHT22;13279;51.300;12.394;2023-01-20T13:45:20;3.70;99.90
25328;DHT22;13279;51.300;12.394;2023-01-20T13:48:22;3.70;99.90
25328;DHT22;13279;51.300;12.394;2023-01-20T13:50:50;3.80;99.90
25328;DHT22;13279;51.300;12.394;2023-01-20T13:53:26;3.90;99.90
25328;DHT22;13279;51.300;12.394;2023-01-20T13:56:27;4.00;99.90
25328;DHT22;13279;51.300;12.394;2023-01-20T13:58:58;4.10;99.90
25328;DHT22;13279;51.300;12.394;2023-01-20T14:01:26;4.10;99.90
25328;DHT22;13279;51.300;12.394;2023-01-20T14:04:02;4.20;99.90
25328;DHT22;13279;51.300;12.394;2023-01-20T14:06:29;4.20;99.90
25328;DHT22;13279;51.300;12.394;2023-01-20T14:08:58;4.20;99.90
25328;DHT22;13279;51.300;12.394;2023-01-20T14:11:28;4.30;99.90
25328;DHT22;13279;51.300;12.394;2023-01-20T14:13:57;4.20;99.90
25328;DHT22;13279;51.300;12.394;2023-01-20T14:16:28;4.10;99.90
25328;DHT22;13279;51.300;12.394;2023-01-20T14:18:58;4.20;99.90
25328;DHT22;13279;51.300;12.394;2023-01-20T14:21:28;4.20;99.90
25328;DHT22;13279;51.300;12.394;2023-01-20T14:23:56;4.20;99.90
25328;DHT22;13279;51.300;12.394;2023-01-20T14:26:27;4.30;99.90
25328;DHT22;13279;51.300;12.394;2023-01-20T14:28:56;4.40;99.90
25328;DHT22;13279;51.300;12.394;2023-01-20T14:31:34;4.60;99.90
25328;DHT22;13279;51.300;12.394;2023-01-20T14:34:21;4.60;99.90
25328;DHT22;13279;51.300;12.394;2023-01-20T14:36:50;4.70;99.90
25328;DHT22;13279;51.300;12.394;2023-01-20T14:39:19;4.90;99.90
25328;DHT22;13279;51.300;12.394;2023-01-20T14:41:50;5.20;99.90
25328;DHT22;13279;51.300;12.394;2023-01-20T14:44:20;5.60;99.90
25328;DHT22;13279;51.300;12.394;2023-01-20T14:46:50;5.80;99.90
25328;DHT22;13279;51.300;12.394;2023-01-20T14:49:20;6.20;99.90
25328;DHT22;13279;51.300;12.394;2023-01-20T14:51:49;6.50;99.90
25328;DHT22;13279;51.300;12.394;2023-01-20T14:54:34;6.70;99.90
25328;DHT22;13279;51.300;12.394;2023-01-20T14:57:21;6.80;99.90
25328;DHT22;13279;51.300;12.394;2023-01-20T15:00:11;7.00;99.90
25328;DHT22;13279;51.300;12.394;2023-01-20T15:02:40;6.70;99.90
25328;DHT22;13279;51.300;12.394;2023-01-20T15:05:23;6.50;99.90
25328;DHT22;13279;51.300;12.394;2023-01-20T15:08:17;6.20;99.90
25328;DHT22;13279;51.300;12.394;2023-01-20T15:13:31;5.70;99.90
25328;DHT22;13279;51.300;12.394;2023-01-20T15:16:06;5.50;99.90
25328;DHT22;13279;51.300;12.394;2023-01-20T15:18:34;5.30;99.90
25328;DHT22;13279;51.300;12.394;2023-01-20T15:21:21;5.00;99.90
25328;DHT22;13279;51.300;12.394;2023-01-20T15:23:51;4.70;99.90
25328;DHT22;13279;51.300;12.394;2023-01-20T15:26:24;4.60;99.90
25328;DHT22;13279;51.300;12.394;2023-01-20T15:28:55;4.50;99.90
25328;DHT22;13279;51.300;12.394;2023-01-20T15:31:23;4.40;99.90
25328;DHT22;13279;51.300;12.394;2023-01-20T15:33:51;4.20;99.90
25328;DHT22;13279;51.300;12.394;2023-01-20T15:36:25;4.10;99.90
25328;DHT22;13279;51.300;12.394;2023-01-20T15:38:54;4.00;99.90
25328;DHT22;13279;51.300;12.394;2023-01-20T15:41:21;3.90;99.90
25328;DHT22;13279;51.300;12.394;2023-01-20T15:43:49;3.80;99.90
25328;DHT22;13279;51.300;12.394;2023-01-20T15:46:19;3.70;99.90
25328;DHT22;13279;51.300;12.394;2023-01-20T15:48:46;3.60;99.90
25328;DHT22;13279;51.300;12.394;2023-01-20T15:51:15;3.50;99.90
25328;DHT22;13279;51.300;12.394;2023-01-20T15:53:43;3.40;99.90
25328;DHT22;13279;51.300;12.394;2023-01-20T15:56:17;3.30;99.90
25328;DHT22;13279;51.300;12.394;2023-01-20T15:58:46;3.20;99.90
25328;DHT22;13279;51.300;12.394;2023-01-20T16:01:14;3.10;99.90
25328;DHT22;13279;51.300;12.394;2023-01-20T16:03:44;3.00;99.90
25328;DHT22;13279;51.300;12.394;2023-01-20T16:06:13;2.90;99.90
25328;DHT22;13279;51.300;12.394;2023-01-20T16:08:43;2.90;99.90
25328;DHT22;13279;51.300;12.394;2023-01-20T16:11:12;2.80;99.90
25328;DHT22;13279;51.300;12.394;2023-01-20T16:13:40;2.90;99.90
25328;DHT22;13279;51.300;12.394;2023-01-20T16:16:11;2.80;99.90
25328;DHT22;13279;51.300;12.394;2023-01-20T16:18:39;2.90;99.90
25328;DHT22;13279;51.300;12.394;2023-01-20T16:21:09;2.80;99.90
25328;DHT22;13279;51.300;12.394;2023-01-20T16:23:37;2.80;99.90
25328;DHT22;13279;51.300;12.394;2023-01-20T16:26:15;2.80;99.90
25328;DHT22;13279;51.300;12.394;2023-01-20T16:28:44;2.70;99.90
25328;DHT22;13279;51.300;12.394;2023-01-20T16:31:13;2.70;99.90
25328;DHT22;13279;51.300;12.394;2023-01-20T16:33:41;2.70;99.90
25328;DHT22;13279;51.300;12.394;2023-01-20T16:36:12;2.60;99.90